KRRL

Details ICAO KRRL
Name Merrill Muni
Region United States
Timezone America/Chicago (UTC-6.0)
Plans Departing 0
Arriving 0
Stats Elevation 1,318 ft / 402 m (AMSL)
Location 45.199133° -89.711762°
Runways 2
Magnetic Variation 2.781° W
Sunrise 2017-12-15 13:32:34 UTC / 2017-12-15 07:32:34 Local
Sunset 2017-12-15 22:18:27 UTC / 2017-12-15 16:18:27 Local
Advertisement - Login to hide

Runways

ID Width Length Bearing (true) Bearing (mag) Surface Threshold Offset Overrun Length
07 75 ft / 23 m 5,089 ft / 1,551 m 68.50° 71.28° Asphalt 0 ft / 0 m 0 ft / 0 m
16 75 ft / 23 m 2,998 ft / 914 m 156.63° 159.41° Asphalt 0 ft / 0 m 0 ft / 0 m
25 75 ft / 23 m 5,089 ft / 1,551 m 248.52° 251.30° Asphalt 0 ft / 0 m 0 ft / 0 m
34 75 ft / 23 m 2,998 ft / 914 m 336.63° 339.41° Asphalt 0 ft / 0 m 0 ft / 0 m

Map

Weather


0- 5 10 15 20 25 30 35+ Temperature / ° C

Clouds and Precipitation
Forecast for 2017-12-16 00:00 UTC. Updated 35 minutes ago

Ground ~20,000 ft ~40,000 ft Winds

METAR

KRRL 151935Z AUTO 30004KT 10SM -SN OVC023 M09/M14 A2978 RMK AO2 T10901137

TAF

Not found

Frequencies

Recorded 119.92 MHz AWOS 3
Unicom 122.80 MHz CTAF/UNICOM
Warning: Do not use this data for real-world aviation or navigation. No guarantee of current accuracy is given.